createdAt,value
2018-09-01T00:00:53.129Z,99.90
2018-09-01T00:03:21.534Z,99.90
2018-09-01T00:05:49.987Z,99.90
2018-09-01T00:08:18.441Z,99.90
2018-09-01T00:10:46.870Z,99.90
2018-09-01T00:13:15.266Z,99.90
2018-09-01T00:15:43.717Z,99.90
2018-09-01T00:18:12.171Z,99.90
2018-09-01T00:20:40.590Z,99.90
2018-09-01T00:23:08.982Z,99.90
2018-09-01T00:25:37.414Z,99.90
2018-09-01T00:28:05.845Z,99.90
2018-09-01T00:30:34.372Z,99.90
2018-09-01T00:33:02.709Z,99.90
2018-09-01T00:35:31.153Z,99.90
2018-09-01T00:38:04.987Z,99.90
2018-09-01T00:40:33.434Z,99.90
2018-09-01T00:43:01.877Z,99.90
2018-09-01T00:45:30.737Z,99.90
2018-09-01T00:47:59.141Z,99.90
2018-09-01T00:50:27.570Z,99.90
2018-09-01T00:52:55.977Z,99.90
2018-09-01T00:55:29.742Z,99.90
2018-09-01T00:57:58.150Z,99.90
2018-09-01T01:00:26.583Z,99.90
2018-09-01T01:02:54.996Z,99.90
2018-09-01T01:05:23.458Z,99.90
2018-09-01T01:07:51.881Z,99.90
2018-09-01T01:10:20.330Z,99.90
2018-09-01T01:12:49.457Z,99.90
2018-09-01T01:15:18.353Z,99.90
2018-09-01T01:17:46.793Z,99.90
2018-09-01T01:20:15.298Z,99.90
2018-09-01T01:22:43.719Z,99.90
2018-09-01T01:25:12.174Z,99.90
2018-09-01T01:27:40.613Z,99.90
2018-09-01T01:30:09.061Z,99.90
2018-09-01T01:32:37.655Z,99.90
2018-09-01T01:35:06.309Z,99.90
2018-09-01T01:37:35.994Z,99.90
2018-09-01T01:40:05.205Z,99.90
2018-09-01T01:42:34.535Z,99.90
2018-09-01T01:45:03.039Z,99.90
2018-09-01T01:47:31.478Z,99.90
2018-09-01T01:50:00.001Z,99.90
2018-09-01T01:52:28.654Z,99.90
2018-09-01T01:54:57.085Z,99.90
2018-09-01T01:57:25.497Z,99.90
2018-09-01T01:59:53.947Z,99.90
2018-09-01T02:02:22.373Z,99.90
2018-09-01T02:04:50.809Z,99.90
2018-09-01T02:07:19.270Z,99.90
2018-09-01T02:09:47.681Z,99.90
2018-09-01T02:12:16.110Z,99.90
2018-09-01T02:14:44.518Z,99.90
2018-09-01T02:17:12.993Z,99.90
2018-09-01T02:19:41.409Z,99.90
2018-09-01T02:22:09.857Z,99.90
2018-09-01T02:24:38.263Z,99.90
2018-09-01T02:27:06.710Z,99.90
2018-09-01T02:29:35.111Z,99.90
2018-09-01T02:32:03.574Z,99.90
2018-09-01T02:34:31.986Z,99.90
2018-09-01T02:37:00.420Z,99.90
2018-09-01T02:39:28.829Z,99.90
2018-09-01T02:41:57.258Z,99.90
2018-09-01T02:44:25.673Z,99.90
2018-09-01T02:46:54.117Z,99.90
2018-09-01T02:49:22.569Z,99.90
2018-09-01T02:51:50.999Z,99.90
2018-09-01T02:54:19.406Z,99.90
2018-09-01T02:56:47.831Z,99.90
2018-09-01T02:59:16.237Z,99.90
2018-09-01T03:01:44.673Z,99.90
2018-09-01T03:04:13.174Z,99.90
2018-09-01T03:06:51.654Z,99.90
2018-09-01T03:09:20.502Z,99.90
2018-09-01T03:11:49.313Z,99.90
2018-09-01T03:14:17.738Z,99.90
2018-09-01T03:16:46.198Z,99.90
2018-09-01T03:19:14.618Z,99.90
2018-09-01T03:21:43.041Z,99.90
2018-09-01T03:24:11.463Z,99.90
2018-09-01T03:26:39.901Z,99.90
2018-09-01T03:29:08.305Z,99.90
2018-09-01T03:31:36.845Z,99.90
2018-09-01T03:34:05.458Z,99.90
2018-09-01T03:36:33.969Z,99.90
2018-09-01T03:39:02.513Z,99.90
2018-09-01T03:41:30.946Z,99.90
2018-09-01T03:43:59.349Z,99.90
2018-09-01T03:46:27.798Z,99.90
2018-09-01T03:48:58.276Z,99.90
2018-09-01T03:51:26.993Z,99.90
2018-09-01T03:53:55.414Z,99.90
2018-09-01T03:56:23.838Z,99.90
2018-09-01T03:58:52.296Z,99.90
2018-09-01T04:01:20.853Z,99.90
2018-09-01T04:03:49.277Z,99.90
2018-09-01T04:06:17.738Z,99.90
2018-09-01T04:08:46.189Z,99.90
2018-09-01T04:11:14.634Z,99.90
2018-09-01T04:13:43.031Z,99.90
2018-09-01T04:16:11.461Z,99.90
2018-09-01T04:18:39.865Z,99.90
2018-09-01T04:21:08.342Z,99.90
2018-09-01T04:23:36.793Z,99.90
2018-09-01T04:26:05.390Z,99.90
2018-09-01T04:28:34.912Z,99.90
2018-09-01T04:31:07.193Z,99.90
2018-09-01T04:33:35.610Z,99.90
2018-09-01T04:36:04.069Z,99.90
2018-09-01T04:38:32.469Z,99.90
2018-09-01T04:41:00.914Z,99.90
2018-09-01T04:43:29.379Z,99.90
2018-09-01T04:45:57.778Z,99.90
2018-09-01T04:48:26.221Z,99.90
2018-09-01T04:50:54.630Z,99.90
2018-09-01T04:53:23.058Z,99.90
2018-09-01T04:55:51.461Z,99.90
2018-09-01T04:58:19.898Z,99.90
2018-09-01T05:00:48.331Z,99.90
2018-09-01T05:03:16.754Z,99.90
2018-09-01T05:05:45.185Z,99.90
2018-09-01T05:08:13.629Z,99.90
2018-09-01T05:10:42.038Z,99.90
2018-09-01T05:13:10.465Z,99.90
2018-09-01T05:15:38.873Z,99.90
2018-09-01T05:18:07.347Z,99.90
2018-09-01T05:20:35.757Z,99.90
2018-09-01T05:23:04.229Z,99.90
2018-09-01T05:25:32.658Z,99.90
2018-09-01T05:28:01.130Z,99.90
2018-09-01T05:30:29.554Z,99.90
2018-09-01T05:32:58.125Z,99.90
2018-09-01T05:35:26.520Z,99.90
2018-09-01T05:37:54.954Z,99.90
2018-09-01T05:40:23.353Z,99.90
2018-09-01T05:42:51.773Z,99.90
2018-09-01T05:45:20.173Z,99.90
2018-09-01T05:47:48.605Z,99.90
2018-09-01T05:50:17.024Z,99.90
2018-09-01T05:52:45.460Z,99.90
2018-09-01T05:55:13.878Z,99.90
2018-09-01T05:57:42.309Z,99.90
2018-09-01T06:00:10.762Z,99.90
2018-09-01T06:02:39.194Z,99.90
2018-09-01T06:05:07.727Z,99.90
2018-09-01T06:07:36.595Z,99.90
2018-09-01T06:10:05.069Z,99.90
2018-09-01T06:12:33.497Z,99.90
2018-09-01T06:15:01.950Z,99.90
2018-09-01T06:17:30.431Z,99.90
2018-09-01T06:19:58.824Z,99.90
2018-09-01T06:22:27.257Z,99.90
2018-09-01T06:24:55.754Z,99.90
2018-09-01T06:27:30.598Z,99.90
2018-09-01T06:29:59.094Z,99.90
2018-09-01T06:32:27.706Z,99.90
2018-09-01T06:34:56.121Z,99.90
2018-09-01T06:37:24.581Z,99.90
2018-09-01T06:39:53.002Z,99.90
2018-09-01T06:42:21.430Z,99.90
2018-09-01T06:44:49.853Z,99.90
2018-09-01T06:47:18.280Z,99.90
2018-09-01T06:49:46.693Z,99.90
2018-09-01T06:52:15.277Z,99.90
2018-09-01T06:54:43.680Z,99.90
2018-09-01T06:57:12.113Z,99.90
2018-09-01T06:59:40.517Z,99.90
2018-09-01T07:02:08.918Z,99.90
2018-09-01T07:04:37.386Z,99.90
2018-09-01T07:07:05.789Z,99.90
2018-09-01T07:09:34.221Z,99.90
2018-09-01T07:12:02.618Z,99.90
2018-09-01T07:14:31.045Z,99.90
2018-09-01T07:16:59.458Z,99.90
2018-09-01T07:19:27.880Z,99.90
2018-09-01T07:21:56.297Z,99.90
2018-09-01T07:24:24.718Z,99.90
2018-09-01T07:26:53.133Z,99.90
2018-09-01T07:29:21.574Z,99.90
2018-09-01T07:31:50.040Z,99.90
2018-09-01T07:34:18.474Z,99.90
2018-09-01T07:36:46.882Z,99.90
2018-09-01T07:39:15.330Z,99.90
2018-09-01T07:41:43.729Z,99.90
2018-09-01T07:44:12.171Z,99.90
2018-09-01T07:46:40.594Z,99.90
2018-09-01T07:49:09.046Z,99.90
2018-09-01T07:51:37.474Z,99.90
2018-09-01T07:54:06.014Z,99.90
2018-09-01T07:56:34.433Z,99.90
2018-09-01T07:59:03.019Z,99.90
2018-09-01T08:01:31.425Z,99.90
2018-09-01T08:04:00.005Z,99.90
2018-09-01T08:06:28.474Z,99.90
2018-09-01T08:08:56.928Z,99.90
2018-09-01T08:11:25.349Z,99.90
2018-09-01T08:13:53.933Z,99.90
2018-09-01T08:16:22.253Z,99.90
2018-09-01T08:18:50.690Z,99.90
2018-09-01T08:21:19.123Z,99.90
2018-09-01T08:23:47.568Z,99.90
2018-09-01T08:26:15.974Z,99.90
2018-09-01T08:28:44.413Z,99.90
2018-09-01T08:31:13.470Z,99.90
2018-09-01T08:33:42.068Z,99.90
2018-09-01T08:36:10.430Z,99.90
2018-09-01T08:38:38.949Z,99.90
2018-09-01T08:41:07.458Z,99.90
2018-09-01T08:43:35.955Z,99.90
2018-09-01T08:46:04.446Z,99.90
2018-09-01T08:48:32.925Z,99.90
2018-09-01T08:51:01.381Z,99.90
2018-09-01T08:53:29.907Z,99.90
2018-09-01T08:55:58.363Z,99.90
2018-09-01T08:58:26.839Z,99.90
2018-09-01T09:00:55.291Z,99.90
2018-09-01T09:03:23.750Z,99.90
2018-09-01T09:05:52.267Z,99.90
2018-09-01T09:08:20.710Z,99.90
2018-09-01T09:10:49.233Z,99.90
2018-09-01T09:13:17.757Z,99.90
2018-09-01T09:15:46.233Z,99.90
2018-09-01T09:18:14.729Z,99.90
2018-09-01T09:20:43.262Z,99.90
2018-09-01T09:23:11.767Z,99.90
2018-09-01T09:25:40.243Z,99.90
2018-09-01T09:28:08.711Z,99.90
2018-09-01T09:30:37.185Z,99.90
2018-09-01T09:33:05.766Z,99.90
2018-09-01T09:35:34.237Z,99.90
2018-09-01T09:38:02.818Z,99.90
2018-09-01T09:40:31.301Z,99.90
2018-09-01T09:42:59.755Z,99.90
2018-09-01T09:45:28.238Z,99.90
2018-09-01T09:47:56.691Z,99.90
2018-09-01T09:50:25.175Z,99.90
2018-09-01T09:52:53.682Z,99.90
2018-09-01T09:55:22.158Z,99.90
2018-09-01T09:57:50.718Z,99.90
2018-09-01T10:00:23.410Z,99.90
2018-09-01T10:02:51.862Z,99.90
2018-09-01T10:05:20.444Z,99.90
2018-09-01T10:07:48.866Z,99.90
2018-09-01T10:10:17.373Z,99.90
2018-09-01T10:12:45.867Z,99.90
2018-09-01T10:15:14.366Z,99.90
2018-09-01T10:17:42.826Z,99.90
2018-09-01T10:20:11.344Z,99.90
2018-09-01T10:22:39.699Z,99.90
2018-09-01T10:25:08.197Z,99.90
2018-09-01T10:27:36.640Z,99.90
2018-09-01T10:30:05.157Z,99.90
2018-09-01T10:32:33.587Z,99.90
2018-09-01T10:35:02.043Z,99.90
2018-09-01T10:37:30.515Z,99.90
2018-09-01T10:39:58.966Z,99.90
2018-09-01T10:42:27.422Z,99.90
2018-09-01T10:44:55.859Z,99.90
2018-09-01T10:47:24.283Z,99.90
2018-09-01T10:49:52.753Z,99.90
2018-09-01T10:52:21.185Z,99.90
2018-09-01T10:54:49.681Z,99.90
2018-09-01T10:57:18.101Z,99.90
2018-09-01T10:59:46.563Z,99.90
2018-09-01T11:02:14.964Z,99.90
2018-09-01T11:04:43.451Z,99.90
2018-09-01T11:07:11.894Z,99.90
2018-09-01T11:09:40.330Z,99.90
2018-09-01T11:12:08.750Z,99.90
2018-09-01T11:14:37.281Z,99.90
2018-09-01T11:17:05.734Z,99.90
2018-09-01T11:19:34.235Z,96.70
2018-09-01T11:22:02.692Z,97.30
2018-09-01T11:24:31.132Z,99.60
2018-09-01T11:26:59.582Z,98.90
2018-09-01T11:29:28.030Z,98.70
2018-09-01T11:31:56.482Z,99.90
2018-09-01T11:34:24.910Z,99.90
2018-09-01T11:36:53.383Z,98.80
2018-09-01T11:39:21.793Z,96.00
2018-09-01T11:41:50.235Z,96.10
2018-09-01T11:44:18.677Z,95.30
2018-09-01T11:46:47.144Z,93.40
2018-09-01T11:49:15.566Z,92.60
2018-09-01T11:51:44.000Z,91.10
2018-09-01T11:54:12.417Z,86.70
2018-09-01T11:56:40.948Z,88.70
2018-09-01T11:59:09.379Z,89.10
2018-09-01T12:01:37.818Z,89.80
2018-09-01T12:04:06.278Z,88.20
2018-09-01T12:06:34.773Z,85.00
2018-09-01T12:09:03.494Z,81.70
2018-09-01T12:11:31.826Z,82.00
2018-09-01T12:14:00.269Z,78.90
2018-09-01T12:16:28.738Z,79.00
2018-09-01T12:18:57.179Z,75.70
2018-09-01T12:21:25.621Z,80.60
2018-09-01T12:23:54.046Z,87.20
2018-09-01T12:26:22.489Z,86.80
2018-09-01T12:28:50.918Z,90.10
2018-09-01T12:31:19.383Z,92.00
2018-09-01T12:33:47.818Z,91.20
2018-09-01T12:36:16.268Z,91.70
2018-09-01T12:38:44.697Z,92.00
2018-09-01T12:41:13.169Z,91.70
2018-09-01T12:43:41.654Z,90.60
2018-09-01T12:46:10.126Z,83.70
2018-09-01T12:48:38.786Z,82.30
2018-09-01T12:51:07.473Z,88.50
2018-09-01T12:53:35.942Z,85.30
2018-09-01T12:56:04.418Z,85.80
2018-09-01T12:58:32.838Z,90.40
2018-09-01T13:01:01.276Z,88.80
2018-09-01T13:03:29.698Z,90.80
2018-09-01T13:05:58.165Z,91.60
2018-09-01T13:08:26.565Z,91.90
2018-09-01T13:10:55.022Z,94.60
2018-09-01T13:13:23.441Z,87.10
2018-09-01T13:15:51.883Z,88.40
2018-09-01T13:18:20.305Z,89.00
2018-09-01T13:20:48.779Z,88.20
2018-09-01T13:23:17.210Z,88.30
2018-09-01T13:25:45.655Z,86.80
2018-09-01T13:28:14.098Z,81.20
2018-09-01T13:30:42.514Z,75.30
2018-09-01T13:33:11.062Z,71.50
2018-09-01T13:35:39.553Z,63.30
2018-09-01T13:38:08.014Z,64.60
2018-09-01T13:40:36.458Z,65.70
2018-09-01T13:43:04.906Z,62.50
2018-09-01T13:45:33.364Z,68.80
2018-09-01T13:48:01.801Z,76.80
2018-09-01T13:50:30.241Z,80.20
2018-09-01T13:52:58.719Z,85.90
2018-09-01T13:55:27.190Z,87.50
2018-09-01T13:57:55.644Z,90.40
2018-09-01T14:00:24.416Z,84.70
2018-09-01T14:02:52.841Z,81.00
2018-09-01T14:05:21.291Z,76.30
2018-09-01T14:07:49.839Z,69.80
2018-09-01T14:10:18.182Z,72.80
2018-09-01T14:12:46.688Z,71.60
2018-09-01T14:15:15.113Z,74.00
2018-09-01T14:17:43.552Z,77.60
2018-09-01T14:20:11.993Z,81.60
2018-09-01T14:22:40.418Z,83.20
2018-09-01T14:25:08.855Z,86.30
2018-09-01T14:27:37.306Z,83.60
2018-09-01T14:30:06.784Z,78.90
2018-09-01T14:32:35.218Z,82.70
2018-09-01T14:35:03.693Z,81.50
2018-09-01T14:37:32.278Z,78.00
2018-09-01T14:40:00.678Z,77.40
2018-09-01T14:42:29.112Z,73.50
2018-09-01T14:44:57.538Z,76.30
2018-09-01T14:47:26.077Z,79.70
2018-09-01T14:49:54.538Z,83.20
2018-09-01T14:52:22.961Z,84.40
2018-09-01T14:54:51.417Z,82.70
2018-09-01T14:57:19.862Z,79.70
2018-09-01T14:59:49.282Z,80.80
2018-09-01T15:02:18.025Z,85.60
2018-09-01T15:04:46.484Z,80.60
2018-09-01T15:07:14.949Z,78.10
2018-09-01T15:09:43.422Z,78.20
2018-09-01T15:12:11.897Z,83.80
2018-09-01T15:14:40.353Z,84.50
2018-09-01T15:17:08.799Z,88.80
2018-09-01T15:19:37.253Z,89.00
2018-09-01T15:22:05.685Z,87.80
2018-09-01T15:24:34.120Z,82.80
2018-09-01T15:27:02.590Z,83.80
2018-09-01T15:29:31.012Z,84.20
2018-09-01T15:31:59.472Z,86.30
2018-09-01T15:34:27.890Z,84.60
2018-09-01T15:36:56.309Z,87.10
2018-09-01T15:39:24.773Z,89.40
2018-09-01T15:41:53.233Z,87.70
2018-09-01T15:44:21.714Z,90.20
2018-09-01T15:46:50.108Z,91.00
2018-09-01T15:49:18.553Z,91.70
2018-09-01T15:51:46.990Z,91.00
2018-09-01T15:54:15.455Z,91.60
2018-09-01T15:56:43.925Z,93.00
2018-09-01T15:59:12.413Z,92.90
2018-09-01T16:01:40.832Z,93.20
2018-09-01T16:04:09.269Z,93.30
2018-09-01T16:06:37.711Z,92.80
2018-09-01T16:09:07.005Z,93.20
2018-09-01T16:11:35.466Z,93.20
2018-09-01T16:14:03.951Z,95.30
2018-09-01T16:16:32.410Z,96.10
2018-09-01T16:19:00.865Z,95.30
2018-09-01T16:21:29.290Z,93.60
2018-09-01T16:23:57.745Z,93.50
2018-09-01T16:26:26.183Z,91.80
2018-09-01T16:28:54.637Z,93.10
2018-09-01T16:31:23.093Z,93.30
2018-09-01T16:33:51.526Z,94.50
2018-09-01T16:36:20.078Z,95.50
2018-09-01T16:38:48.557Z,98.20
2018-09-01T16:41:17.034Z,98.00
2018-09-01T16:43:45.534Z,99.60
2018-09-01T16:46:13.986Z,99.90
2018-09-01T16:48:42.446Z,99.90
2018-09-01T16:51:10.894Z,99.90
2018-09-01T16:53:39.374Z,99.90
2018-09-01T16:56:08.018Z,99.90
2018-09-01T16:58:36.501Z,99.90
2018-09-01T17:01:04.975Z,99.90
2018-09-01T17:03:33.426Z,99.90
2018-09-01T17:06:01.875Z,99.90
2018-09-01T17:08:30.349Z,99.90
2018-09-01T17:10:58.795Z,99.90
2018-09-01T17:13:27.248Z,99.90
2018-09-01T17:15:55.688Z,99.90
2018-09-01T17:18:24.163Z,99.90
2018-09-01T17:20:52.593Z,99.90
2018-09-01T17:23:21.062Z,99.90
2018-09-01T17:25:49.551Z,99.90
2018-09-01T17:28:18.026Z,99.90
2018-09-01T17:30:46.534Z,99.90
2018-09-01T17:33:15.036Z,99.90
2018-09-01T17:35:43.464Z,99.90
2018-09-01T17:38:11.881Z,99.90
2018-09-01T17:40:40.338Z,99.90
2018-09-01T17:43:08.786Z,99.90
2018-09-01T17:45:37.233Z,99.90
2018-09-01T17:48:05.709Z,99.90
2018-09-01T17:50:34.175Z,99.90
2018-09-01T17:53:02.606Z,99.90
2018-09-01T17:55:31.078Z,99.90
2018-09-01T17:57:59.514Z,99.90
2018-09-01T18:00:28.034Z,99.90
2018-09-01T18:02:56.487Z,99.90
2018-09-01T18:05:25.006Z,99.90
2018-09-01T18:07:53.417Z,99.90
2018-09-01T18:10:21.942Z,99.90
2018-09-01T18:12:50.376Z,99.90
2018-09-01T18:15:18.832Z,99.90
2018-09-01T18:17:47.319Z,99.90
2018-09-01T18:20:15.765Z,99.90
2018-09-01T18:22:44.206Z,99.90
2018-09-01T18:25:12.650Z,99.90
2018-09-01T18:27:41.081Z,99.90
2018-09-01T18:30:09.814Z,99.90
2018-09-01T18:32:38.238Z,99.90
2018-09-01T18:35:07.619Z,99.90
2018-09-01T18:37:36.366Z,99.90
2018-09-01T18:40:05.789Z,99.90
2018-09-01T18:42:34.686Z,99.90
2018-09-01T18:45:03.187Z,99.90
2018-09-01T18:47:31.665Z,99.90
2018-09-01T18:50:00.136Z,99.90
2018-09-01T18:52:28.578Z,99.90
2018-09-01T18:54:57.025Z,99.90
2018-09-01T18:57:25.482Z,99.90
2018-09-01T18:59:53.947Z,99.90
2018-09-01T19:02:22.369Z,99.90
2018-09-01T19:04:50.889Z,99.90
2018-09-01T19:07:19.333Z,99.90
2018-09-01T19:09:47.773Z,99.90
2018-09-01T19:12:16.177Z,99.90
2018-09-01T19:14:44.623Z,99.90
2018-09-01T19:17:13.076Z,99.90
2018-09-01T19:19:41.529Z,99.90
2018-09-01T19:22:09.942Z,99.90
2018-09-01T19:24:38.425Z,99.90
2018-09-01T19:27:06.957Z,99.90
2018-09-01T19:29:35.336Z,99.90
2018-09-01T19:32:03.771Z,99.90
2018-09-01T19:34:32.244Z,99.90
2018-09-01T19:37:00.693Z,99.90
2018-09-01T19:39:29.138Z,99.90
2018-09-01T19:41:57.597Z,99.90
2018-09-01T19:44:26.142Z,99.90
2018-09-01T19:46:54.579Z,99.90
2018-09-01T19:49:23.018Z,99.90
2018-09-01T19:51:51.445Z,99.90
2018-09-01T19:54:19.930Z,99.90
2018-09-01T19:56:48.315Z,99.90
2018-09-01T19:59:16.754Z,99.90
2018-09-01T20:01:45.186Z,99.90
2018-09-01T20:04:13.598Z,99.90
2018-09-01T20:06:42.082Z,99.90
2018-09-01T20:09:10.511Z,99.90
2018-09-01T20:11:38.977Z,99.90
2018-09-01T20:14:07.486Z,99.90
2018-09-01T20:16:35.862Z,99.90
2018-09-01T20:19:04.301Z,99.90
2018-09-01T20:21:32.723Z,99.90
2018-09-01T20:24:01.145Z,99.90
2018-09-01T20:26:29.969Z,99.90
2018-09-01T20:28:58.438Z,99.90
2018-09-01T20:31:26.914Z,99.90
2018-09-01T20:33:55.342Z,99.90
2018-09-01T20:36:23.785Z,99.90
2018-09-01T20:38:52.185Z,99.90
2018-09-01T20:41:20.625Z,99.90
2018-09-01T20:43:49.042Z,99.90
2018-09-01T20:46:17.475Z,99.90
2018-09-01T20:48:45.890Z,99.90
2018-09-01T20:51:14.336Z,99.90
2018-09-01T20:53:42.765Z,99.90
2018-09-01T20:56:11.230Z,99.90
2018-09-01T20:58:39.646Z,99.90
2018-09-01T21:01:08.158Z,99.90
2018-09-01T21:03:36.635Z,99.90
2018-09-01T21:06:05.093Z,99.90
2018-09-01T21:08:33.513Z,99.90
2018-09-01T21:11:01.938Z,99.90
2018-09-01T21:13:30.341Z,99.90
2018-09-01T21:15:58.798Z,99.90
2018-09-01T21:18:27.201Z,99.90
2018-09-01T21:20:55.669Z,99.90
2018-09-01T21:23:24.089Z,99.90
2018-09-01T21:25:52.537Z,99.90
2018-09-01T21:28:20.945Z,99.90
2018-09-01T21:30:49.386Z,99.90
2018-09-01T21:33:17.810Z,99.90
2018-09-01T21:35:46.242Z,99.90
2018-09-01T21:38:14.641Z,99.90
2018-09-01T21:40:43.081Z,99.90
2018-09-01T21:43:11.490Z,99.90
2018-09-01T21:45:39.925Z,99.90
2018-09-01T21:48:08.345Z,99.90
2018-09-01T21:50:36.801Z,99.90
2018-09-01T21:53:05.366Z,99.90
2018-09-01T21:55:33.824Z,99.90
2018-09-01T21:58:02.238Z,99.90
2018-09-01T22:00:30.734Z,99.90
2018-09-01T22:02:59.144Z,99.90
2018-09-01T22:05:27.809Z,99.90
2018-09-01T22:07:56.213Z,99.90
2018-09-01T22:10:24.666Z,99.90
2018-09-01T22:12:53.118Z,99.90
2018-09-01T22:15:21.518Z,99.90
2018-09-01T22:17:49.969Z,99.90
2018-09-01T22:20:18.377Z,99.90
2018-09-01T22:22:46.802Z,99.90
2018-09-01T22:25:15.196Z,99.90
2018-09-01T22:27:43.626Z,99.90
2018-09-01T22:30:12.050Z,99.90
2018-09-01T22:32:40.478Z,99.90
2018-09-01T22:35:08.904Z,99.90
2018-09-01T22:37:37.346Z,99.90
2018-09-01T22:40:05.806Z,99.90
2018-09-01T22:42:34.239Z,99.90
2018-09-01T22:45:02.666Z,99.90
2018-09-01T22:47:32.574Z,99.90
2018-09-01T22:50:00.993Z,99.90
2018-09-01T22:52:29.425Z,99.90
2018-09-01T22:54:57.840Z,99.90
2018-09-01T22:57:26.312Z,99.90
2018-09-01T22:59:54.673Z,99.90
2018-09-01T23:02:23.109Z,99.90
2018-09-01T23:04:51.619Z,99.90
2018-09-01T23:07:20.047Z,99.90
2018-09-01T23:09:48.483Z,99.90
2018-09-01T23:12:16.966Z,99.90
2018-09-01T23:14:45.377Z,99.90
2018-09-01T23:17:13.811Z,99.90
2018-09-01T23:19:42.237Z,99.90
2018-09-01T23:22:10.657Z,99.90
2018-09-01T23:24:39.077Z,99.90
2018-09-01T23:27:07.518Z,99.90
2018-09-01T23:29:35.921Z,99.90
2018-09-01T23:32:04.357Z,99.90
2018-09-01T23:34:32.765Z,99.90
2018-09-01T23:37:01.187Z,99.90
2018-09-01T23:39:29.594Z,99.90
2018-09-01T23:41:58.036Z,99.90
2018-09-01T23:44:26.469Z,99.90
2018-09-01T23:46:54.929Z,99.90
2018-09-01T23:49:23.334Z,99.90
2018-09-01T23:51:51.765Z,99.90
2018-09-01T23:54:20.174Z,99.90
2018-09-01T23:56:48.609Z,99.90
2018-09-01T23:59:17.012Z,99.90
